Cedarglen — VCLN — position and weather

sailwx.info

Track history (hours):
 
Tides and Currents Weather Stations Pressure Air Temp Water Temp Dewpoint Dewpoint Depression Visibility Wind Speed Wind Dir Waves Ship Positions

Cedarglen

ex Cartierdoc

Last reported at 2017-Sep-20 07:29 UTC. Time now 2017-Sep-22 19:04 UTC.
Position N 45°02' W 074°37'.

Length 222 m; draft 6.5 m.

Type: Cargo ship. MMSI: 316001838.

Date/timePositionNaut miles runAvg speedWind from/ knotsBaromVisibWave heightAir tempDewpointWater temp
2017-Sep-20 07:29N 45°02' W 074°37'16 8.5
2017-Sep-20 05:32N 45°12' W 074°18'0 9.8
2017-Sep-20 05:30N 45°12' W 074°18'5 9.8
2017-Sep-20 04:57N 45°14' W 074°11'4 8.5
2017-Sep-20 04:27N 45°13' W 074°05'4 8.3
2017-Sep-20 04:00N 45°14' W 073°60'5 8.8
2017-Sep-20 03:29N 45°18' W 073°56'1 1.4
2017-Sep-20 03:00N 45°18' W 073°56'1 1.5
2017-Sep-20 02:30N 45°19' W 073°55'0 0.7
2017-Sep-20 02:00N 45°19' W 073°55'2 4.0
2017-Sep-20 01:30N 45°21' W 073°53'5 9.5
2017-Sep-20 01:00N 45°24' W 073°47'4 8.5
2017-Sep-20 00:30N 45°25' W 073°42'3 6.0
2017-Sep-20 00:00N 45°24' W 073°38'2 4.7
2017-Sep-19 23:30N 45°24' W 073°34'0 0.9
2017-Sep-19 22:59N 45°24' W 073°34'2 4.1
2017-Sep-19 22:24N 45°25' W 073°30'3 6.7
2017-Sep-19 22:00N 45°28' W 073°30'2 1.9
2017-Sep-19 20:57N 45°30' W 073°31'2 0.0
2017-Sep-17 19:23N 45°28' W 073°30'2 6.3
2017-Sep-17 19:00N 45°25' W 073°30'3 3.1
2017-Sep-17 18:08N 45°24' W 073°34'0 1.2
2017-Sep-17 17:58N 45°24' W 073°34'2 3.7
2017-Sep-17 17:19N 45°24' W 073°38'2 6.0
2017-Sep-17 17:00N 45°25' W 073°40'3 6.7
2017-Sep-17 16:30N 45°24' W 073°45'510.6
2017-Sep-17 16:00N 45°21' W 073°51'4 7.3
2017-Sep-17 15:30N 45°19' W 073°55'0 0.4
2017-Sep-17 15:00N 45°19' W 073°55'1 1.3
2017-Sep-17 14:30N 45°18' W 073°56'0 0.8
2017-Sep-17 14:00N 45°18' W 073°56'2 4.8
2017-Sep-17 13:30N 45°16' W 073°58'2410.1
2017-Sep-17 11:07N 45°06' W 074°29'  
2017-Sep-14 02:00N 45°15' W 083°03'611.2
2017-Sep-14 01:27N 45°21' W 083°06'511.2
2017-Sep-14 00:59N 45°25' W 083°11'511.1
2017-Sep-14 00:30N 45°29' W 083°17'511.0
2017-Sep-14 00:00N 45°33' W 083°22'611.1
2017-Sep-13 23:30N 45°37' W 083°27'611.1
2017-Sep-13 23:00N 45°41' W 083°33'510.9
2017-Sep-13 22:30N 45°45' W 083°38'610.8
2017-Sep-13 21:54N 45°50' W 083°44'410.8
2017-Sep-13 21:30N 45°53' W 083°49'510.6
2017-Sep-13 21:00N 45°57' W 083°54'12 9.3
2017-Sep-13 19:43N 46°08' W 084°01'5 9.9
2017-Sep-13 19:16N 46°11' W 084°06'3 9.5
2017-Sep-13 18:58N 46°12' W 084°09'20 5.3
2017-Sep-13 15:09N 46°30' W 084°23'4 8.3
2017-Sep-13 14:39N 46°28' W 084°28'210.2
2017-Sep-13 14:27N 46°27' W 084°31'  
Track history (hours):
 
Tides and Currents Weather Stations Pressure Air Temp Water Temp Dewpoint Dewpoint Depression Visibility Wind Speed Wind Dir Waves Ship Positions

Cedarglen

ex Cartierdoc

Last reported at 2017-Sep-20 07:29 UTC. Time now 2017-Sep-22 19:04 UTC.
Position N 45°02' W 074°37'.

Length 222 m; draft 6.5 m.

Type: Cargo ship. MMSI: 316001838.

Date/timePositionNaut miles runAvg speedWind from/ knotsBaromVisibWave heightAir tempDewpointWater temp
2017-Sep-20 07:29N 45°02' W 074°37'16 8.5
2017-Sep-20 05:32N 45°12' W 074°18'0 9.8
2017-Sep-20 05:30N 45°12' W 074°18'5 9.8
2017-Sep-20 04:57N 45°14' W 074°11'4 8.5
2017-Sep-20 04:27N 45°13' W 074°05'4 8.3
2017-Sep-20 04:00N 45°14' W 073°60'5 8.8
2017-Sep-20 03:29N 45°18' W 073°56'1 1.4
2017-Sep-20 03:00N 45°18' W 073°56'1 1.5
2017-Sep-20 02:30N 45°19' W 073°55'0 0.7
2017-Sep-20 02:00N 45°19' W 073°55'2 4.0
2017-Sep-20 01:30N 45°21' W 073°53'5 9.5
2017-Sep-20 01:00N 45°24' W 073°47'4 8.5
2017-Sep-20 00:30N 45°25' W 073°42'3 6.0
2017-Sep-20 00:00N 45°24' W 073°38'2 4.7
2017-Sep-19 23:30N 45°24' W 073°34'0 0.9
2017-Sep-19 22:59N 45°24' W 073°34'2 4.1
2017-Sep-19 22:24N 45°25' W 073°30'3 6.7
2017-Sep-19 22:00N 45°28' W 073°30'2 1.9
2017-Sep-19 20:57N 45°30' W 073°31'2 0.0
2017-Sep-17 19:23N 45°28' W 073°30'2 6.3
2017-Sep-17 19:00N 45°25' W 073°30'3 3.1
2017-Sep-17 18:08N 45°24' W 073°34'0 1.2
2017-Sep-17 17:58N 45°24' W 073°34'2 3.7
2017-Sep-17 17:19N 45°24' W 073°38'2 6.0
2017-Sep-17 17:00N 45°25' W 073°40'3 6.7
2017-Sep-17 16:30N 45°24' W 073°45'510.6
2017-Sep-17 16:00N 45°21' W 073°51'4 7.3
2017-Sep-17 15:30N 45°19' W 073°55'0 0.4
2017-Sep-17 15:00N 45°19' W 073°55'1 1.3
2017-Sep-17 14:30N 45°18' W 073°56'0 0.8
2017-Sep-17 14:00N 45°18' W 073°56'2 4.8
2017-Sep-17 13:30N 45°16' W 073°58'2410.1
2017-Sep-17 11:07N 45°06' W 074°29'  
2017-Sep-14 02:00N 45°15' W 083°03'611.2
2017-Sep-14 01:27N 45°21' W 083°06'511.2
2017-Sep-14 00:59N 45°25' W 083°11'511.1
2017-Sep-14 00:30N 45°29' W 083°17'511.0
2017-Sep-14 00:00N 45°33' W 083°22'611.1
2017-Sep-13 23:30N 45°37' W 083°27'611.1
2017-Sep-13 23:00N 45°41' W 083°33'510.9
2017-Sep-13 22:30N 45°45' W 083°38'610.8
2017-Sep-13 21:54N 45°50' W 083°44'410.8
2017-Sep-13 21:30N 45°53' W 083°49'510.6
2017-Sep-13 21:00N 45°57' W 083°54'12 9.3
2017-Sep-13 19:43N 46°08' W 084°01'5 9.9
2017-Sep-13 19:16N 46°11' W 084°06'3 9.5
2017-Sep-13 18:58N 46°12' W 084°09'20 5.3
2017-Sep-13 15:09N 46°30' W 084°23'4 8.3
2017-Sep-13 14:39N 46°28' W 084°28'210.2
2017-Sep-13 14:27N 46°27' W 084°31'  

Dump ship's entire track history